Time;durP1;ratioP1;P1;durP2;ratioP2;P2;SDS_P1;SDS_P2;PMS_P1;PMS_P2;Temp;Humidity;BMP_temperature;BMP_pressure;BME280_temperature;BME280_humidity;BME280_pressure;Samples;Min_cycle;Max_cycle;Signal;HPM_P1;HPM_P2
2023/11/27 00:00:31;;;;;;;;;;;;;;;;;;5072405;28;19958;-65
2023/11/27 00:02:57;;;;;;;;;;;;;;;;;;5088320;28;19912;-65
2023/11/27 00:05:23;;;;;;;;;;;;;;;;;;5092235;28;19908;-65
2023/11/27 00:07:49;;;;;;;;;;;;;;;;;;5088723;28;19938;-66
2023/11/27 00:10:15;;;;;;;;;;;;;;;;;;5077562;28;19913;-65
2023/11/27 00:12:41;;;;;;;;;;;;;;;;;;5075220;28;19916;-65
2023/11/27 00:15:07;;;;;;;;;;;;;;;;;;5092415;28;19999;-65
2023/11/27 00:17:33;;;;;;;;;;;;;;;;;;5092096;28;19998;-65
2023/11/27 00:19:59;;;;;;;;;;;;;;;;;;5088247;28;19912;-66
2023/11/27 00:22:25;;;;;;;;;;;;;;;;;;5087605;28;20062;-65
2023/11/27 00:24:51;;;;;;;;;;;;;;;;;;5087915;28;19912;-65
2023/11/27 00:27:17;;;;;;;;;;;;;;;;;;5075583;28;19921;-65
2023/11/27 00:29:43;;;;;;;;;;;;;;;;;;5078641;28;19919;-65
2023/11/27 00:32:09;;;;;;;;;;;;;;;;;;5090138;28;20279;-66
2023/11/27 00:34:35;;;;;;;;;;;;;;;;;;5095727;28;19919;-65
2023/11/27 00:37:01;;;;;;;;;;;;;;;;;;5090738;28;19965;-66
2023/11/27 00:39:27;;;;;;;;;;;;;;;;;;5084575;28;19942;-65
2023/11/27 00:41:53;;;;;;;;;;;;;;;;;;5087982;28;20292;-65
2023/11/27 00:44:19;;;;;;;;;;;;;;;;;;5084691;28;19955;-61
2023/11/27 00:46:45;;;;;;;;;;;;;;;;;;5095765;28;19912;-62
2023/11/27 00:49:11;;;;;;;;;;;;;;;;;;5093427;28;19912;-62
2023/11/27 00:51:36;;;;;;;;;;;;;;;;;;5080863;28;20006;-62
2023/11/27 00:54:03;;;;;;;;;;;;;;;;;;5091079;28;20253;-62
2023/11/27 00:56:29;;;;;;;;;;;;;;;;;;5095067;28;19912;-61
2023/11/27 00:58:54;;;;;;;;;;;;;;;;;;5090327;28;19912;-62
2023/11/27 01:01:20;;;;;;;;;;;;;;;;;;5083421;28;19977;-61
2023/11/27 01:03:46;;;;;;;;;;;;;;;;;;5095557;28;19947;-61
2023/11/27 01:06:13;;;;;;;;;;;;;;;;;;5093577;28;20253;-61
2023/11/27 01:08:39;;;;;;;;;;;;;;;;;;5091559;28;20433;-62
2023/11/27 01:11:05;;;;;;;;;;;;;;;;;;5075073;28;20038;-62
2023/11/27 01:13:31;;;;;;;;;;;;;;;;;;5083535;28;20018;-61
2023/11/27 01:15:56;;;;;;;;;;;;;;;;;;5076604;28;19991;-62
2023/11/27 01:18:22;;;;;;;;;;;;;;;;;;5081753;28;19912;-62
2023/11/27 01:20:48;;;;;;;;;;;;;;;;;;5094625;28;19912;-61
2023/11/27 01:23:14;;;;;;;;;;;;;;;;;;5090467;28;19919;-62
2023/11/27 01:25:40;;;;;;;;;;;;;;;;;;5093589;28;19927;-62
2023/11/27 01:28:06;;;;;;;;;;;;;;;;;;5094910;28;19951;-62
2023/11/27 01:30:32;;;;;;;;;;;;;;;;;;5077197;28;19963;-62
2023/11/27 01:32:58;;;;;;;;;;;;;;;;;;5074684;28;19919;-62
2023/11/27 01:35:24;;;;;;;;;;;;;;;;;;5086537;28;19972;-62
2023/11/27 01:37:50;;;;;;;;;;;;;;;;;;5081876;28;20415;-62
2023/11/27 01:40:15;;;;;;;;;;;;;;;;;;5080688;28;19916;-61
2023/11/27 01:42:41;;;;;;;;;;;;;;;;;;5092585;28;20000;-61
2023/11/27 01:45:07;;;;;;;;;;;;;;;;;;5094064;28;19915;-62
2023/11/27 01:47:33;;;;;;;;;;;;;;;;;;5089870;28;19920;-62
2023/11/27 01:49:59;;;;;;;;;;;;;;;;;;5093885;28;20027;-62
2023/11/27 01:52:28;;;;;;;;;;;;;;;;;;5079637;28;19912;-62
2023/11/27 01:54:54;;;;;;;;;;;;;;;;;;5094220;28;19916;-65
2023/11/27 01:57:20;;;;;;;;;;;;;;;;;;5092812;28;20391;-65
2023/11/27 01:59:46;;;;;;;;;;;;;;;;;;5093556;28;20004;-66
2023/11/27 02:02:12;;;;;;;;;;;;;;;;;;5094056;28;19951;-62
2023/11/27 02:04:38;;;;;;;;;;;;;;;;;;5093036;28;19978;-61
2023/11/27 02:07:03;;;;;;;;;;;;;;;;;;5091580;28;20011;-62
2023/11/27 02:09:29;;;;;;;;;;;;;;;;;;5086907;28;20004;-63
2023/11/27 02:11:55;;;;;;;;;;;;;;;;;;5090134;28;20375;-62
2023/11/27 02:14:21;;;;;;;;;;;;;;;;;;5087387;28;19912;-61
2023/11/27 02:16:48;;;;;;;;;;;;;;;;;;5081365;28;19916;-62
2023/11/27 02:19:14;;;;;;;;;;;;;;;;;;5087533;28;19916;-62
2023/11/27 02:21:39;;;;;;;;;;;;;;;;;;5092016;28;19951;-63
2023/11/27 02:24:05;;;;;;;;;;;;;;;;;;5093693;28;19985;-62
2023/11/27 02:26:31;;;;;;;;;;;;;;;;;;5093336;28;19920;-61
2023/11/27 02:28:57;;;;;;;;;;;;;;;;;;5089115;28;19951;-62
2023/11/27 02:31:23;;;;;;;;;;;;;;;;;;5078435;28;20338;-62
2023/11/27 02:33:49;;;;;;;;;;;;;;;;;;5090183;28;19916;-62
2023/11/27 02:36:15;;;;;;;;;;;;;;;;;;5083149;28;19956;-62
2023/11/27 02:38:41;;;;;;;;;;;;;;;;;;5078465;28;20283;-62
2023/11/27 02:41:07;;;;;;;;;;;;;;;;;;5078881;28;19916;-62
2023/11/27 02:43:34;;;;;;;;;;;;;;;;;;5088624;28;19920;-61
2023/11/27 02:46:00;;;;;;;;;;;;;;;;;;5092383;28;19916;-61
2023/11/27 02:48:26;;;;;;;;;;;;;;;;;;5092278;28;20399;-62
2023/11/27 02:50:53;;;;;;;;;;;;;;;;;;5074518;28;20003;-62
2023/11/27 02:53:19;;;;;;;;;;;;;;;;;;5088450;28;19916;-61
2023/11/27 02:55:45;;;;;;;;;;;;;;;;;;5092511;28;19912;-62
2023/11/27 02:58:12;;;;;;;;;;;;;;;;;;5088478;28;19912;-61
2023/11/27 03:00:38;;;;;;;;;;;;;;;;;;5083280;28;19944;-62
2023/11/27 03:03:03;;;;;;;;;;;;;;;;;;5075458;28;19963;-62
2023/11/27 03:05:29;;;;;;;;;;;;;;;;;;5090013;28;19916;-62
2023/11/27 03:07:55;;;;;;;;;;;;;;;;;;5078049;28;19970;-62
2023/11/27 03:10:21;;;;;;;;;;;;;;;;;;5073242;28;20329;-62
2023/11/27 03:12:47;;;;;;;;;;;;;;;;;;5072848;28;19916;-62
2023/11/27 03:15:13;;;;;;;;;;;;;;;;;;5085413;28;19935;-62
2023/11/27 03:17:39;;;;;;;;;;;;;;;;;;5085877;28;19999;-62
2023/11/27 03:20:05;;;;;;;;;;;;;;;;;;5080275;28;20011;-62
2023/11/27 03:22:31;;;;;;;;;;;;;;;;;;5083041;28;19916;-62
2023/11/27 03:24:57;;;;;;;;;;;;;;;;;;5086356;28;20029;-62
2023/11/27 03:27:22;;;;;;;;;;;;;;;;;;5074856;28;20395;-62
2023/11/27 03:29:48;;;;;;;;;;;;;;;;;;5083444;28;19955;-62
2023/11/27 03:32:14;;;;;;;;;;;;;;;;;;5092049;28;19914;-63
2023/11/27 03:34:40;;;;;;;;;;;;;;;;;;5073401;28;19928;-62
2023/11/27 03:37:06;;;;;;;;;;;;;;;;;;5073365;28;20265;-62
2023/11/27 03:39:32;;;;;;;;;;;;;;;;;;5087645;28;19917;-62
2023/11/27 03:42:00;;;;;;;;;;;;;;;;;;5090102;28;20013;-62
2023/11/27 03:44:26;;;;;;;;;;;;;;;;;;5072843;28;19924;-62
2023/11/27 03:46:52;;;;;;;;;;;;;;;;;;5080558;28;19951;-62
2023/11/27 03:49:18;;;;;;;;;;;;;;;;;;5087397;28;19966;-62
2023/11/27 03:51:44;;;;;;;;;;;;;;;;;;5078871;28;19908;-62
2023/11/27 03:54:11;;;;;;;;;;;;;;;;;;5085421;28;20293;-62
2023/11/27 03:56:37;;;;;;;;;;;;;;;;;;5080717;28;19908;-62
2023/11/27 03:59:03;;;;;;;;;;;;;;;;;;5081689;28;19966;-62
2023/11/27 04:01:29;;;;;;;;;;;;;;;;;;5088543;28;20002;-62
2023/11/27 04:03:54;;;;;;;;;;;;;;;;;;5093679;28;19912;-62
2023/11/27 04:06:20;;;;;;;;;;;;;;;;;;5080864;28;19962;-62
2023/11/27 04:08:46;;;;;;;;;;;;;;;;;;5085243;28;20387;-62
2023/11/27 04:11:13;;;;;;;;;;;;;;;;;;5080114;28;19920;-62
2023/11/27 04:13:39;;;;;;;;;;;;;;;;;;5076112;28;20339;-62
2023/11/27 04:16:05;;;;;;;;;;;;;;;;;;5081856;28;20083;-62
2023/11/27 04:18:30;;;;;;;;;;;;;;;;;;5083025;28;20003;-62
2023/11/27 04:20:56;;;;;;;;;;;;;;;;;;5086507;28;20357;-62
2023/11/27 04:23:22;;;;;;;;;;;;;;;;;;5095495;28;19938;-62
2023/11/27 04:25:48;;;;;;;;;;;;;;;;;;5081353;28;20444;-62
2023/11/27 04:28:14;;;;;;;;;;;;;;;;;;5077355;28;19926;-62
2023/11/27 04:30:40;;;;;;;;;;;;;;;;;;5080452;28;20644;-61
2023/11/27 04:33:06;;;;;;;;;;;;;;;;;;5080621;28;19912;-62
2023/11/27 04:35:32;;;;;;;;;;;;;;;;;;5086976;28;19955;-62
2023/11/27 04:37:58;;;;;;;;;;;;;;;;;;5094391;28;19919;-61
2023/11/27 04:40:23;;;;;;;;;;;;;;;;;;5083394;28;20364;-61
2023/11/27 04:42:49;;;;;;;;;;;;;;;;;;5080389;28;19916;-62
2023/11/27 04:45:15;;;;;;;;;;;;;;;;;;5080528;28;19908;-62
2023/11/27 04:47:41;;;;;;;;;;;;;;;;;;5093465;28;19988;-62
2023/11/27 04:50:07;;;;;;;;;;;;;;;;;;5086307;28;20288;-62
2023/11/27 04:52:33;;;;;;;;;;;;;;;;;;5087365;28;19924;-62
2023/11/27 04:55:02;;;;;;;;;;;;;;;;;;5078431;28;20356;-62
2023/11/27 04:57:28;;;;;;;;;;;;;;;;;;5074070;28;20003;-62
2023/11/27 04:59:55;;;;;;;;;;;;;;;;;;5083247;28;20440;-62
2023/11/27 05:02:21;;;;;;;;;;;;;;;;;;5085222;28;19985;-63
2023/11/27 05:04:47;;;;;;;;;;;;;;;;;;5084884;28;20384;-62
2023/11/27 05:07:12;;;;;;;;;;;;;;;;;;5083740;28;19922;-62
2023/11/27 05:09:38;;;;;;;;;;;;;;;;;;5090367;28;19908;-62
2023/11/27 05:12:04;;;;;;;;;;;;;;;;;;5077836;28;19922;-62
2023/11/27 05:14:30;;;;;;;;;;;;;;;;;;5088659;28;19947;-62
2023/11/27 05:16:57;;;;;;;;;;;;;;;;;;5085330;28;19957;-62
2023/11/27 05:19:23;;;;;;;;;;;;;;;;;;5089518;28;19916;-63
2023/11/27 05:21:48;;;;;;;;;;;;;;;;;;5083383;28;20006;-62
2023/11/27 05:24:15;;;;;;;;;;;;;;;;;;5092393;28;20031;-62
2023/11/27 05:26:41;;;;;;;;;;;;;;;;;;5081261;28;19924;-62
2023/11/27 05:29:07;;;;;;;;;;;;;;;;;;5092823;28;19923;-63
2023/11/27 05:31:33;;;;;;;;;;;;;;;;;;5093339;28;19947;-62
2023/11/27 05:33:59;;;;;;;;;;;;;;;;;;5094897;28;19962;-62
2023/11/27 05:36:25;;;;;;;;;;;;;;;;;;5077706;28;20398;-62
2023/11/27 05:38:51;;;;;;;;;;;;;;;;;;5077726;28;20272;-62
2023/11/27 05:41:18;;;;;;;;;;;;;;;;;;5087454;28;19969;-62
2023/11/27 05:43:44;;;;;;;;;;;;;;;;;;5082626;28;19912;-62
2023/11/27 05:46:10;;;;;;;;;;;;;;;;;;5081554;28;19927;-62
2023/11/27 05:48:36;;;;;;;;;;;;;;;;;;5093336;28;19955;-62
2023/11/27 05:51:02;;;;;;;;;;;;;;;;;;5092619;28;20368;-62
2023/11/27 05:53:29;;;;;;;;;;;;;;;;;;5083157;28;20453;-62
2023/11/27 05:55:55;;;;;;;;;;;;;;;;;;5077161;28;19908;-62
2023/11/27 05:58:21;;;;;;;;;;;;;;;;;;5087509;28;19993;-62
2023/11/27 06:00:47;;;;;;;;;;;;;;;;;;5092811;28;19965;-62
2023/11/27 06:03:13;;;;;;;;;;;;;;;;;;5083458;28;19965;-62
2023/11/27 06:05:39;;;;;;;;;;;;;;;;;;5092398;28;19919;-62
2023/11/27 06:08:05;;;;;;;;;;;;;;;;;;5088539;28;19959;-62
2023/11/27 06:10:31;;;;;;;;;;;;;;;;;;5093871;28;19912;-63
2023/11/27 06:12:57;;;;;;;;;;;;;;;;;;5092574;28;19912;-62
2023/11/27 06:15:23;;;;;;;;;;;;;;;;;;5084325;28;20392;-62
2023/11/27 06:17:49;;;;;;;;;;;;;;;;;;5090776;28;19946;-62
2023/11/27 06:20:15;;;;;;;;;;;;;;;;;;5091585;28;19912;-62
2023/11/27 06:22:41;;;;;;;;;;;;;;;;;;5081049;28;19913;-63
2023/11/27 06:25:07;;;;;;;;;;;;;;;;;;5082861;28;19960;-62
2023/11/27 06:27:33;;;;;;;;;;;;;;;;;;5087912;28;19967;-62
2023/11/27 06:29:59;;;;;;;;;;;;;;;;;;5076271;28;19919;-63
2023/11/27 06:32:24;;;;;;;;;;;;;;;;;;5088377;28;19912;-62
2023/11/27 06:34:51;;;;;;;;;;;;;;;;;;5079237;28;19955;-63
2023/11/27 06:37:17;;;;;;;;;;;;;;;;;;5088365;28;19919;-62
2023/11/27 06:39:42;;;;;;;;;;;;;;;;;;5090415;28;20363;-62
2023/11/27 06:42:11;;;;;;;;;;;;;;;;;;5085779;28;19995;-63
2023/11/27 06:44:38;;;;;;;;;;;;;;;;;;5082718;28;19912;-62
2023/11/27 06:47:04;;;;;;;;;;;;;;;;;;5092264;28;19920;-62
2023/11/27 06:49:30;;;;;;;;;;;;;;;;;;5085558;28;19920;-62
2023/11/27 06:51:56;;;;;;;;;;;;;;;;;;5089554;28;20335;-61
2023/11/27 06:54:22;;;;;;;;;;;;;;;;;;5088880;28;19920;-61
2023/11/27 06:56:48;;;;;;;;;;;;;;;;;;5083941;28;19919;-62
2023/11/27 06:59:13;;;;;;;;;;;;;;;;;;5075539;28;19950;-63
2023/11/27 07:01:41;;;;;;;;;;;;;;;;;;5087863;28;19912;-61
2023/11/27 07:04:07;;;;;;;;;;;;;;;;;;5089644;28;19912;-62
2023/11/27 07:06:35;;;;;;;;;;;;;;;;;;5090372;28;19966;-62
2023/11/27 07:09:04;;;;;;;;;;;;;;;;;;5088054;28;20303;-61
2023/11/27 07:11:30;;;;;;;;;;;;;;;;;;5083897;28;19920;-62
2023/11/27 07:13:56;;;;;;;;;;;;;;;;;;5091206;28;20045;-62
2023/11/27 07:16:22;;;;;;;;;;;;;;;;;;5089239;28;20371;-61
2023/11/27 07:18:48;;;;;;;;;;;;;;;;;;5086178;28;20027;-62
2023/11/27 07:21:14;;;;;;;;;;;;;;;;;;5088419;28;19916;-61
2023/11/27 07:23:40;;;;;;;;;;;;;;;;;;5088955;28;19912;-62
2023/11/27 07:26:06;;;;;;;;;;;;;;;;;;5088257;28;20409;-62
2023/11/27 07:28:32;;;;;;;;;;;;;;;;;;5091968;28;19912;-62
2023/11/27 07:30:58;;;;;;;;;;;;;;;;;;5071382;28;19955;-62
2023/11/27 07:33:24;;;;;;;;;;;;;;;;;;5083566;28;19912;-62
2023/11/27 07:35:50;;;;;;;;;;;;;;;;;;5090884;28;19916;-62
2023/11/27 07:38:16;;;;;;;;;;;;;;;;;;5076868;28;19951;-62
2023/11/27 07:40:42;;;;;;;;;;;;;;;;;;5088498;28;20001;-62
2023/11/27 07:43:10;;;;;;;;;;;;;;;;;;5089603;28;20430;-62
2023/11/27 07:45:36;;;;;;;;;;;;;;;;;;5076493;28;20021;-62
2023/11/27 07:48:02;;;;;;;;;;;;;;;;;;5085316;28;19944;-62
2023/11/27 07:50:29;;;;;;;;;;;;;;;;;;5083014;28;19909;-62
2023/11/27 07:52:55;;;;;;;;;;;;;;;;;;5085810;28;19912;-62
2023/11/27 07:55:21;;;;;;;;;;;;;;;;;;5091969;28;19908;-63
2023/11/27 07:57:47;;;;;;;;;;;;;;;;;;5087062;28;19961;-63
2023/11/27 08:00:16;;;;;;;;;;;;;;;;;;5091565;28;19980;-63
2023/11/27 08:02:45;;;;;;;;;;;;;;;;;;5091316;28;19908;-64
2023/11/27 08:05:11;;;;;;;;;;;;;;;;;;5090023;28;20006;-64
2023/11/27 08:07:37;;;;;;;;;;;;;;;;;;5086126;28;20337;-64
2023/11/27 08:10:03;;;;;;;;;;;;;;;;;;5078405;28;20276;-64
2023/11/27 08:12:29;;;;;;;;;;;;;;;;;;5088942;28;19989;-64
2023/11/27 08:14:55;;;;;;;;;;;;;;;;;;5083512;28;19974;-64
2023/11/27 08:17:21;;;;;;;;;;;;;;;;;;5091129;28;20006;-64
2023/11/27 08:19:48;;;;;;;;;;;;;;;;;;5083617;28;19999;-64
2023/11/27 08:22:15;;;;;;;;;;;;;;;;;;5085975;28;19912;-64
2023/11/27 08:24:41;;;;;;;;;;;;;;;;;;5091460;28;19916;-64
2023/11/27 08:27:07;;;;;;;;;;;;;;;;;;5089682;28;19943;-64
2023/11/27 08:29:33;;;;;;;;;;;;;;;;;;5089805;28;19919;-65
2023/11/27 08:32:00;;;;;;;;;;;;;;;;;;5091139;28;19912;-65
2023/11/27 08:34:25;;;;;;;;;;;;;;;;;;5091401;28;20011;-65
2023/11/27 08:36:51;;;;;;;;;;;;;;;;;;5091171;28;19982;-65
2023/11/27 08:39:18;;;;;;;;;;;;;;;;;;5089017;28;19953;-65
2023/11/27 08:41:44;;;;;;;;;;;;;;;;;;5090874;28;19908;-65
2023/11/27 08:44:10;;;;;;;;;;;;;;;;;;5091187;28;19908;-65
2023/11/27 08:46:36;;;;;;;;;;;;;;;;;;5090735;28;20411;-65
2023/11/27 08:49:02;;;;;;;;;;;;;;;;;;5075405;28;19961;-65
2023/11/27 08:51:28;;;;;;;;;;;;;;;;;;5075699;28;20407;-65
2023/11/27 08:53:54;;;;;;;;;;;;;;;;;;5094972;28;19939;-65
2023/11/27 08:56:21;;;;;;;;;;;;;;;;;;5094615;28;19931;-65
2023/11/27 08:58:50;;;;;;;;;;;;;;;;;;5088577;28;19912;-66
2023/11/27 09:01:19;;;;;;;;;;;;;;;;;;5080677;28;19927;-65
2023/11/27 09:03:45;;;;;;;;;;;;;;;;;;5094849;28;19909;-64
2023/11/27 09:06:11;;;;;;;;;;;;;;;;;;5087088;28;19916;-67
2023/11/27 09:08:40;;;;;;;;;;;;;;;;;;5084417;28;19955;-65
2023/11/27 09:11:07;;;;;;;;;;;;;;;;;;5094383;28;19912;-64
2023/11/27 09:13:33;;;;;;;;;;;;;;;;;;5091678;28;19912;-65
2023/11/27 09:15:59;;;;;;;;;;;;;;;;;;5091421;28;19959;-65
2023/11/27 09:18:26;;;;;;;;;;;;;;;;;;5090978;28;19916;-65
2023/11/27 09:20:52;;;;;;;;;;;;;;;;;;5094419;28;19913;-65
2023/11/27 09:23:18;;;;;;;;;;;;;;;;;;5094385;28;19999;-65
2023/11/27 09:25:44;;;;;;;;;;;;;;;;;;5094136;28;20020;-65
2023/11/27 09:28:10;;;;;;;;;;;;;;;;;;5082260;28;19923;-65
2023/11/27 09:30:36;;;;;;;;;;;;;;;;;;5079132;28;19913;-65
2023/11/27 09:33:04;;;;;;;;;;;;;;;;;;5083304;28;21570;-65
2023/11/27 09:35:30;;;;;;;;;;;;;;;;;;5084131;28;20342;-65
2023/11/27 09:37:56;;;;;;;;;;;;;;;;;;5080908;28;19994;-64
2023/11/27 09:40:21;;;;;;;;;;;;;;;;;;5078515;28;20051;-64
2023/11/27 09:42:47;;;;;;;;;;;;;;;;;;5084804;28;20318;-64
2023/11/27 09:45:13;;;;;;;;;;;;;;;;;;5090819;28;20324;-65
2023/11/27 09:47:43;;;;;;;;;;;;;;;;;;5092397;28;19959;-64
2023/11/27 09:50:09;;;;;;;;;;;;;;;;;;5085019;28;19908;-64
2023/11/27 09:52:35;;;;;;;;;;;;;;;;;;5074508;28;19908;-64
2023/11/27 09:55:03;;;;;;;;;;;;;;;;;;5084623;28;19919;-64
2023/11/27 09:57:29;;;;;;;;;;;;;;;;;;5074598;28;20343;-64
2023/11/27 09:59:55;;;;;;;;;;;;;;;;;;5083167;28;20009;-64
2023/11/27 10:02:21;;;;;;;;;;;;;;;;;;5080928;28;19912;-64
2023/11/27 10:04:48;;;;;;;;;;;;;;;;;;5078012;28;20301;-64
2023/11/27 10:07:14;;;;;;;;;;;;;;;;;;5080542;28;19917;-64
2023/11/27 10:09:40;;;;;;;;;;;;;;;;;;5087516;28;19972;-64
2023/11/27 10:12:06;;;;;;;;;;;;;;;;;;5093049;28;19977;-64
2023/11/27 10:14:32;;;;;;;;;;;;;;;;;;5085873;28;19908;-64
2023/11/27 10:16:59;;;;;;;;;;;;;;;;;;5074465;28;19912;-64
2023/11/27 10:19:25;;;;;;;;;;;;;;;;;;5080992;28;20007;-64
2023/11/27 10:21:51;;;;;;;;;;;;;;;;;;5081621;28;19913;-64
2023/11/27 10:24:17;;;;;;;;;;;;;;;;;;5092992;28;20279;-64
2023/11/27 10:26:44;;;;;;;;;;;;;;;;;;5081657;28;19921;-64
2023/11/27 10:29:10;;;;;;;;;;;;;;;;;;5081008;28;20372;-65
2023/11/27 10:31:37;;;;;;;;;;;;;;;;;;5078575;28;20025;-64
2023/11/27 10:34:03;;;;;;;;;;;;;;;;;;5078125;28;19912;-64
2023/11/27 10:36:28;;;;;;;;;;;;;;;;;;5083305;28;20362;-65
2023/11/27 10:38:54;;;;;;;;;;;;;;;;;;5091166;28;20003;-65
2023/11/27 10:41:20;;;;;;;;;;;;;;;;;;5090084;28;19912;-65
2023/11/27 10:43:46;;;;;;;;;;;;;;;;;;5085566;28;19973;-65
2023/11/27 10:46:13;;;;;;;;;;;;;;;;;;5085192;28;19998;-65
2023/11/27 10:48:39;;;;;;;;;;;;;;;;;;5088668;28;19912;-65
2023/11/27 10:51:05;;;;;;;;;;;;;;;;;;5084352;28;20463;-65
2023/11/27 10:53:31;;;;;;;;;;;;;;;;;;5092285;28;20275;-65
2023/11/27 10:55:57;;;;;;;;;;;;;;;;;;5092415;28;19908;-65
2023/11/27 10:58:23;;;;;;;;;;;;;;;;;;5092367;28;19950;-65
2023/11/27 11:00:56;;;;;;;;;;;;;;;;;;5090660;28;19916;-65
2023/11/27 11:03:24;;;;;;;;;;;;;;;;;;5088264;28;19915;-65
2023/11/27 11:05:50;;;;;;;;;;;;;;;;;;5092248;28;19909;-65
2023/11/27 11:08:16;;;;;;;;;;;;;;;;;;5092106;28;19920;-65
2023/11/27 11:10:42;;;;;;;;;;;;;;;;;;5074932;28;20253;-65
2023/11/27 11:13:11;;;;;;;;;;;;;;;;;;5090103;28;20264;-65
2023/11/27 11:15:39;;;;;;;;;;;;;;;;;;5088663;28;19927;-65
2023/11/27 11:18:10;;;;;;;;;;;;;;;;;;5086221;28;20431;-65
2023/11/27 11:20:39;;;;;;;;;;;;;;;;;;5075888;28;19953;-65
2023/11/27 11:23:06;;;;;;;;;;;;;;;;;;5092025;28;20304;-65
2023/11/27 11:25:32;;;;;;;;;;;;;;;;;;5092022;28;20284;-65
2023/11/27 11:27:58;;;;;;;;;;;;;;;;;;5091809;28;19966;-65
2023/11/27 11:30:25;;;;;;;;;;;;;;;;;;5091947;28;19965;-65
2023/11/27 11:32:52;;;;;;;;;;;;;;;;;;5091809;28;20002;-65
2023/11/27 11:35:18;;;;;;;;;;;;;;;;;;5090208;28;19939;-65
2023/11/27 11:37:44;;;;;;;;;;;;;;;;;;5092064;28;19908;-65
2023/11/27 11:40:09;;;;;;;;;;;;;;;;;;5081131;28;19912;-65
2023/11/27 11:42:36;;;;;;;;;;;;;;;;;;5089832;28;19947;-65
2023/11/27 11:45:02;;;;;;;;;;;;;;;;;;5079940;28;20284;-65
2023/11/27 11:47:28;;;;;;;;;;;;;;;;;;5080889;28;19966;-65
2023/11/27 11:49:54;;;;;;;;;;;;;;;;;;5086136;28;19951;-65
2023/11/27 11:52:19;;;;;;;;;;;;;;;;;;5085597;28;19916;-65
2023/11/27 11:54:47;;;;;;;;;;;;;;;;;;5091233;28;20402;-65
2023/11/27 11:57:13;;;;;;;;;;;;;;;;;;5073324;28;20062;-65
2023/11/27 11:59:39;;;;;;;;;;;;;;;;;;5083319;28;20003;-65
2023/11/27 12:02:10;;;;;;;;;;;;;;;;;;5072219;28;19915;-65
2023/11/27 12:04:36;;;;;;;;;;;;;;;;;;5081409;28;20427;-65
2023/11/27 12:07:02;;;;;;;;;;;;;;;;;;5079488;28;19947;-65
2023/11/27 12:09:28;;;;;;;;;;;;;;;;;;5089835;28;19912;-65
2023/11/27 12:11:58;;;;;;;;;;;;;;;;;;5075844;28;19938;-65
2023/11/27 12:14:26;;;;;;;;;;;;;;;;;;5079016;28;19908;-65
2023/11/27 12:16:53;;;;;;;;;;;;;;;;;;5082460;28;19948;-65
2023/11/27 12:19:19;;;;;;;;;;;;;;;;;;5080192;28;19913;-65
2023/11/27 12:21:47;;;;;;;;;;;;;;;;;;5084211;28;20285;-65
2023/11/27 12:24:14;;;;;;;;;;;;;;;;;;5090058;28;19943;-65
2023/11/27 12:26:39;;;;;;;;;;;;;;;;;;5084266;28;20000;-65
2023/11/27 12:29:05;;;;;;;;;;;;;;;;;;5082293;28;19951;-65
2023/11/27 12:31:31;;;;;;;;;;;;;;;;;;5080996;28;19999;-65
2023/11/27 12:33:57;;;;;;;;;;;;;;;;;;5080871;28;19908;-66
2023/11/27 12:36:23;;;;;;;;;;;;;;;;;;5080111;28;19923;-66
2023/11/27 12:38:52;;;;;;;;;;;;;;;;;;5089480;28;20011;-66
2023/11/27 12:41:18;;;;;;;;;;;;;;;;;;5086699;28;20010;-66
2023/11/27 12:43:44;;;;;;;;;;;;;;;;;;5092767;28;20383;-66
2023/11/27 12:46:13;;;;;;;;;;;;;;;;;;5085936;28;19955;-66
2023/11/27 12:48:39;;;;;;;;;;;;;;;;;;5076498;28;19938;-66
2023/11/27 12:51:11;;;;;;;;;;;;;;;;;;5080679;28;20340;-66
2023/11/27 12:53:37;;;;;;;;;;;;;;;;;;5093571;28;19916;-66
2023/11/27 12:56:03;;;;;;;;;;;;;;;;;;5094793;28;20279;-66
2023/11/27 12:58:29;;;;;;;;;;;;;;;;;;5085519;28;19987;-66
2023/11/27 13:00:57;;;;;;;;;;;;;;;;;;5083993;28;20004;-66
2023/11/27 13:03:25;;;;;;;;;;;;;;;;;;5085860;28;20309;-66
2023/11/27 13:05:54;;;;;;;;;;;;;;;;;;5083728;28;19921;-66
2023/11/27 13:08:23;;;;;;;;;;;;;;;;;;5077950;28;19923;-66
2023/11/27 13:10:49;;;;;;;;;;;;;;;;;;5079470;28;19919;-66
2023/11/27 13:13:21;;;;;;;;;;;;;;;;;;5074847;28;19908;-66
2023/11/27 13:15:47;;;;;;;;;;;;;;;;;;5080060;28;19948;-68
2023/11/27 13:18:16;;;;;;;;;;;;;;;;;;5075341;28;19954;-65
2023/11/27 13:20:45;;;;;;;;;;;;;;;;;;5081014;28;20364;-66
2023/11/27 13:23:11;;;;;;;;;;;;;;;;;;5079783;28;20406;-66
2023/11/27 13:25:37;;;;;;;;;;;;;;;;;;5084478;28;19932;-66
2023/11/27 13:28:03;;;;;;;;;;;;;;;;;;5072638;28;19947;-66
2023/11/27 13:30:29;;;;;;;;;;;;;;;;;;5086533;28;19973;-66
2023/11/27 13:32:58;;;;;;;;;;;;;;;;;;5087675;28;20376;-66
2023/11/27 13:35:29;;;;;;;;;;;;;;;;;;5080253;28;19957;-65
2023/11/27 13:37:55;;;;;;;;;;;;;;;;;;5089820;28;19943;-66
2023/11/27 13:40:23;;;;;;;;;;;;;;;;;;5079848;28;19956;-66
2023/11/27 13:42:50;;;;;;;;;;;;;;;;;;5086897;28;19956;-66
2023/11/27 13:45:20;;;;;;;;;;;;;;;;;;5083430;28;19920;-65
2023/11/27 13:47:50;;;;;;;;;;;;;;;;;;5093569;28;20364;-65
2023/11/27 13:50:16;;;;;;;;;;;;;;;;;;5090010;28;19913;-65
2023/11/27 13:52:42;;;;;;;;;;;;;;;;;;5083359;28;19959;-65
2023/11/27 13:55:10;;;;;;;;;;;;;;;;;;5083285;28;19955;-65
2023/11/27 13:57:36;;;;;;;;;;;;;;;;;;5084996;28;19934;-65
2023/11/27 14:00:18;;;;;;;;;;;;;;;;;;5073434;28;20030;-65
2023/11/27 14:02:44;;;;;;;;;;;;;;;;;;5092762;28;19912;-65
2023/11/27 14:05:11;;;;;;;;;;;;;;;;;;5077134;28;19947;-65
2023/11/27 14:07:40;;;;;;;;;;;;;;;;;;5078418;28;19916;-65
2023/11/27 14:10:21;;;;;;;;;;;;;;;;;;5088294;28;20363;-65
2023/11/27 14:12:47;;;;;;;;;;;;;;;;;;5079743;28;19909;-65
2023/11/27 14:15:23;;;;;;;;;;;;;;;;;;5079009;28;19991;-65
2023/11/27 14:18:26;;;;;;;;;;;;;;;;;;5081575;28;19915;-65
2023/11/27 14:23:25;;;;;;;;;;;;;;;;;;5079313;28;20020;-66
2023/11/27 14:31:30;;;;;;;;;;;;;;;;;;5062761;28;20003;-66
2023/11/27 14:33:56;;;;;;;;;;;;;;;;;;5079443;28;20007;-66
2023/11/27 14:36:25;;;;;;;;;;;;;;;;;;5083015;28;20380;-65
2023/11/27 14:38:51;;;;;;;;;;;;;;;;;;5082991;28;19920;-66
2023/11/27 14:41:17;;;;;;;;;;;;;;;;;;5085014;28;19912;-66
2023/11/27 14:43:43;;;;;;;;;;;;;;;;;;5082297;28;19916;-65
2023/11/27 14:46:11;;;;;;;;;;;;;;;;;;5089581;28;20344;-65
2023/11/27 14:48:39;;;;;;;;;;;;;;;;;;5087628;28;20011;-65
2023/11/27 14:51:06;;;;;;;;;;;;;;;;;;5085769;28;20339;-66
2023/11/27 14:53:31;;;;;;;;;;;;;;;;;;5083706;28;20286;-65
2023/11/27 14:55:59;;;;;;;;;;;;;;;;;;5082710;28;19916;-65
2023/11/27 14:58:25;;;;;;;;;;;;;;;;;;5087535;28;19912;-65
2023/11/27 15:00:51;;;;;;;;;;;;;;;;;;5087391;28;19916;-67
2023/11/27 15:03:25;;;;;;;;;;;;;;;;;;5092973;28;19954;-65
2023/11/27 15:05:51;;;;;;;;;;;;;;;;;;5074334;28;19916;-66
2023/11/27 15:08:20;;;;;;;;;;;;;;;;;;5084379;28;19951;-66
2023/11/27 15:10:46;;;;;;;;;;;;;;;;;;5086638;28;19912;-65
2023/11/27 15:13:12;;;;;;;;;;;;;;;;;;5087171;28;20410;-66
2023/11/27 15:15:39;;;;;;;;;;;;;;;;;;5079767;28;19912;-65
2023/11/27 15:18:06;;;;;;;;;;;;;;;;;;5075788;28;20008;-65
2023/11/27 15:20:34;;;;;;;;;;;;;;;;;;5085611;28;19912;-65
2023/11/27 15:23:00;;;;;;;;;;;;;;;;;;5092118;28;19931;-66
2023/11/27 15:25:26;;;;;;;;;;;;;;;;;;5087697;28;20641;-66
2023/11/27 15:27:52;;;;;;;;;;;;;;;;;;5086044;28;19916;-65
2023/11/27 15:30:18;;;;;;;;;;;;;;;;;;5087981;28;20314;-66
2023/11/27 15:32:44;;;;;;;;;;;;;;;;;;5085403;28;20339;-66
2023/11/27 15:35:11;;;;;;;;;;;;;;;;;;5090087;28;19908;-66
2023/11/27 15:37:37;;;;;;;;;;;;;;;;;;5088096;28;19912;-65
2023/11/27 15:40:03;;;;;;;;;;;;;;;;;;5082140;28;19956;-64
2023/11/27 15:42:29;;;;;;;;;;;;;;;;;;5083403;28;20006;-65
2023/11/27 15:44:54;;;;;;;;;;;;;;;;;;5092480;28;20314;-65
2023/11/27 15:47:22;;;;;;;;;;;;;;;;;;5087560;28;19934;-65
2023/11/27 15:49:48;;;;;;;;;;;;;;;;;;5086089;28;20395;-65
2023/11/27 15:52:14;;;;;;;;;;;;;;;;;;5086573;28;19947;-66
2023/11/27 15:54:40;;;;;;;;;;;;;;;;;;5085809;28;19994;-65
2023/11/27 15:57:08;;;;;;;;;;;;;;;;;;5091838;28;19912;-65
2023/11/27 15:59:34;;;;;;;;;;;;;;;;;;5087858;28;19912;-66
2023/11/27 16:02:00;;;;;;;;;;;;;;;;;;5095111;28;19947;-65
2023/11/27 16:04:26;;;;;;;;;;;;;;;;;;5091397;28;19958;-63
2023/11/27 16:06:51;;;;;;;;;;;;;;;;;;5088224;28;19944;-63
2023/11/27 16:09:18;;;;;;;;;;;;;;;;;;5087771;28;20403;-63
2023/11/27 16:11:44;;;;;;;;;;;;;;;;;;5090507;28;19913;-63
2023/11/27 16:14:14;;;;;;;;;;;;;;;;;;5087277;28;20428;-63
2023/11/27 16:16:44;;;;;;;;;;;;;;;;;;5095790;28;19908;-63
2023/11/27 16:19:10;;;;;;;;;;;;;;;;;;5095947;28;19912;-63
2023/11/27 16:21:36;;;;;;;;;;;;;;;;;;5088340;28;20001;-63
2023/11/27 16:24:03;;;;;;;;;;;;;;;;;;5085871;28;19923;-64
2023/11/27 16:26:29;;;;;;;;;;;;;;;;;;5086925;28;19949;-64
2023/11/27 16:28:55;;;;;;;;;;;;;;;;;;5090851;28;19916;-64
2023/11/27 16:31:21;;;;;;;;;;;;;;;;;;5091168;28;19959;-64
2023/11/27 16:33:47;;;;;;;;;;;;;;;;;;5092682;28;20447;-64
2023/11/27 16:36:13;;;;;;;;;;;;;;;;;;5084543;28;19919;-64
2023/11/27 16:38:39;;;;;;;;;;;;;;;;;;5082369;28;19956;-64
2023/11/27 16:41:06;;;;;;;;;;;;;;;;;;5089308;28;20343;-64
2023/11/27 16:43:32;;;;;;;;;;;;;;;;;;5092901;28;20322;-63
2023/11/27 16:45:58;;;;;;;;;;;;;;;;;;5087444;28;19916;-64
2023/11/27 16:48:28;;;;;;;;;;;;;;;;;;5086335;28;19988;-64